createdAt,value
2018-12-21T00:02:44.762Z,6.80
2018-12-21T01:04:24.278Z,5.80
2018-12-21T01:09:27.198Z,5.70
2018-12-21T01:42:56.735Z,4.80
2018-12-21T01:47:59.666Z,4.90
2018-12-21T01:53:08.497Z,4.90
2018-12-21T01:58:17.130Z,5.00
2018-12-21T02:03:25.955Z,5.00
2018-12-21T02:08:28.871Z,5.00
2018-12-21T02:13:37.708Z,5.00
2018-12-21T02:18:46.614Z,5.20
2018-12-21T02:23:55.350Z,5.40
2018-12-21T02:28:58.206Z,5.50
2018-12-21T02:34:06.941Z,5.70
2018-12-21T02:39:16.031Z,5.80
2018-12-21T03:07:02.385Z,6.00
2018-12-21T03:12:05.468Z,6.00
2018-12-21T03:45:41.560Z,6.10
2018-12-21T03:50:44.484Z,6.00
2018-12-21T03:55:53.206Z,6.10
2018-12-21T04:01:01.938Z,6.00
2018-12-21T04:06:10.695Z,6.00
2018-12-21T04:11:13.581Z,6.00
2018-12-21T04:16:22.603Z,6.00
2018-12-21T04:21:31.361Z,5.80
2018-12-21T04:26:40.393Z,5.70
2018-12-21T04:31:43.603Z,5.70
2018-12-21T04:36:52.613Z,5.70
2018-12-21T04:42:01.330Z,5.80
2018-12-21T05:26:54.429Z,5.50
2018-12-21T05:31:57.379Z,5.60
2018-12-21T05:37:05.971Z,5.70
2018-12-21T05:42:14.719Z,5.70
2018-12-21T05:47:23.518Z,5.70
2018-12-21T05:52:26.353Z,5.80
2018-12-21T05:57:35.267Z,5.80
2018-12-21T06:02:44.033Z,5.80
2018-12-21T06:07:53.342Z,5.80
2018-12-21T06:12:56.275Z,5.90
2018-12-21T06:18:05.230Z,6.00
2018-12-21T06:23:13.918Z,6.10
2018-12-21T06:28:22.825Z,6.20
2018-12-21T06:33:25.637Z,6.30
2018-12-21T06:38:34.555Z,6.40
2018-12-21T06:43:43.495Z,6.50
2018-12-21T06:48:52.220Z,6.60
2018-12-21T06:53:55.045Z,6.60
2018-12-21T06:59:04.018Z,6.70
2018-12-21T07:04:12.651Z,6.70
2018-12-21T07:09:21.299Z,6.70
2018-12-21T07:14:30.398Z,6.70
2018-12-21T07:19:39.363Z,6.70
2018-12-21T07:24:48.223Z,6.80
2018-12-21T07:29:56.973Z,6.80
2018-12-21T07:35:08.735Z,6.90
2018-12-21T07:40:17.413Z,7.00
2018-12-21T07:45:26.140Z,7.00
2018-12-21T07:50:34.821Z,7.10
2018-12-21T07:55:44.050Z,7.20
2018-12-21T08:00:53.751Z,7.20
2018-12-21T08:06:02.617Z,7.30
2018-12-21T08:11:11.657Z,7.40
2018-12-21T08:16:20.385Z,7.50
2018-12-21T08:21:29.203Z,7.60
2018-12-21T08:26:38.090Z,7.70
2018-12-21T08:31:47.014Z,7.90
2018-12-21T08:36:55.858Z,8.00
2018-12-21T08:42:04.895Z,8.00
2018-12-21T08:47:13.673Z,8.10
2018-12-21T08:52:22.756Z,8.40
2018-12-21T08:57:31.952Z,8.60
2018-12-21T09:02:41.030Z,8.70
2018-12-21T09:07:49.945Z,8.90
2018-12-21T09:12:59.406Z,9.00
2018-12-21T09:18:13.150Z,9.00
2018-12-21T09:23:26.463Z,9.30
2018-12-21T09:28:36.826Z,9.30
2018-12-21T09:33:45.590Z,9.40
2018-12-21T09:38:54.294Z,9.40
2018-12-21T09:44:03.003Z,9.50
2018-12-21T09:49:11.799Z,9.40
2018-12-21T09:54:20.939Z,9.30
2018-12-21T09:59:29.562Z,9.20
2018-12-21T10:04:38.298Z,9.00
2018-12-21T10:09:47.032Z,8.80
2018-12-21T10:14:55.645Z,8.70
2018-12-21T10:20:05.759Z,8.60
2018-12-21T10:25:14.749Z,8.50
2018-12-21T10:30:23.390Z,8.60
2018-12-21T10:35:32.173Z,8.50
2018-12-21T10:40:40.854Z,8.50
2018-12-21T10:45:49.425Z,8.50
2018-12-21T10:50:58.086Z,8.50
2018-12-21T10:56:06.966Z,8.40
2018-12-21T11:01:15.531Z,8.50
2018-12-21T11:06:24.250Z,8.40
2018-12-21T11:11:34.867Z,8.50
2018-12-21T11:16:50.064Z,8.40
2018-12-21T11:22:02.812Z,8.40
2018-12-21T11:27:15.368Z,8.40
2018-12-21T11:32:24.215Z,8.50
2018-12-21T11:37:33.201Z,8.50
2018-12-21T11:42:42.376Z,8.50
2018-12-21T11:47:51.186Z,8.50
2018-12-21T11:53:00.046Z,8.50
2018-12-21T11:58:08.775Z,8.50
2018-12-21T12:03:17.674Z,8.40
2018-12-21T12:08:26.334Z,8.40
2018-12-21T12:13:35.102Z,8.50
2018-12-21T12:18:43.806Z,8.10
2018-12-21T12:23:52.466Z,8.50
2018-12-21T12:29:01.235Z,8.60
2018-12-21T12:34:11.102Z,8.60
2018-12-21T12:39:19.777Z,8.70
2018-12-21T12:44:28.382Z,8.80
2018-12-21T12:49:37.043Z,8.90
2018-12-21T12:54:45.693Z,8.90
2018-12-21T12:59:54.526Z,8.90
2018-12-21T13:05:03.717Z,9.00
2018-12-21T13:10:12.462Z,9.10
2018-12-21T13:15:21.174Z,9.10
2018-12-21T13:20:29.870Z,9.30
2018-12-21T13:37:01.347Z,9.30
2018-12-21T13:42:10.118Z,9.40
2018-12-21T13:47:18.766Z,9.40
2018-12-21T13:52:27.422Z,9.50
2018-12-21T13:57:36.294Z,9.50
2018-12-21T14:02:44.897Z,9.50
2018-12-21T14:24:50.595Z,9.80
2018-12-21T14:29:53.294Z,9.90
2018-12-21T14:35:01.885Z,10.00
2018-12-21T14:40:10.679Z,10.10
2018-12-21T14:45:18.476Z,10.10
2018-12-21T14:50:23.426Z,10.20
2018-12-21T14:55:37.385Z,10.20
2018-12-21T15:11:53.598Z,10.30
2018-12-21T15:16:57.312Z,10.40
2018-12-21T15:22:00.842Z,10.40
2018-12-21T15:27:09.769Z,10.40
2018-12-21T15:32:15.533Z,10.50
2018-12-21T15:37:19.542Z,10.50
2018-12-21T15:42:23.334Z,10.60
2018-12-21T15:47:26.886Z,10.60
2018-12-21T15:52:32.315Z,10.50
2018-12-21T15:57:41.205Z,10.50
2018-12-21T16:02:47.472Z,10.60
2018-12-21T16:07:56.117Z,10.50
2018-12-21T16:13:12.637Z,10.50
2018-12-21T16:18:18.100Z,10.50
2018-12-21T16:23:29.863Z,10.50
2018-12-21T16:34:11.678Z,10.30
2018-12-21T16:39:26.090Z,10.30
2018-12-21T16:44:32.344Z,10.30
2018-12-21T16:49:41.897Z,10.40
2018-12-21T16:54:51.469Z,10.50
2018-12-21T17:00:02.196Z,10.60
2018-12-21T17:05:10.936Z,10.60
2018-12-21T17:10:19.034Z,10.60
2018-12-21T17:15:28.636Z,10.80
2018-12-21T17:20:40.099Z,10.80
2018-12-21T17:25:49.403Z,10.80
2018-12-21T17:30:58.555Z,10.90
2018-12-21T17:36:14.440Z,11.00
2018-12-21T17:41:23.531Z,11.00
2018-12-21T17:46:32.290Z,11.10
2018-12-21T17:57:30.459Z,11.10
2018-12-21T18:02:33.331Z,11.20
2018-12-21T18:07:36.329Z,11.30
2018-12-21T18:18:25.322Z,11.30
2018-12-21T18:23:29.494Z,11.40
2018-12-21T18:28:35.966Z,11.20
2018-12-21T18:33:39.213Z,11.20
2018-12-21T18:39:09.539Z,11.20
2018-12-21T18:44:12.420Z,11.20
2018-12-21T18:49:22.246Z,11.30
2018-12-21T18:54:31.200Z,11.40
2018-12-21T18:59:40.219Z,11.50
2018-12-21T19:04:50.864Z,11.50
2018-12-21T19:09:54.066Z,11.50
2018-12-21T19:15:03.012Z,11.50
2018-12-21T19:20:09.527Z,11.60
2018-12-21T19:25:19.714Z,11.60
2018-12-21T19:30:28.970Z,11.60
2018-12-21T19:35:43.330Z,11.50
2018-12-21T19:40:49.591Z,11.30
2018-12-21T19:46:03.258Z,11.40
2018-12-21T19:51:10.295Z,11.30
2018-12-21T19:57:20.907Z,11.40
2018-12-21T20:02:33.135Z,11.30
2018-12-21T20:07:39.911Z,11.40
2018-12-21T20:12:46.882Z,11.50
2018-12-21T20:17:56.872Z,11.50
2018-12-21T20:28:38.506Z,11.40
2018-12-21T20:33:48.160Z,11.40
2018-12-21T20:38:58.271Z,11.40
2018-12-21T20:44:03.270Z,11.50
2018-12-21T20:49:13.950Z,11.50
2018-12-21T20:54:18.968Z,11.60
2018-12-21T20:59:26.886Z,11.60
2018-12-21T21:04:36.276Z,11.70
2018-12-21T21:09:45.007Z,11.50
2018-12-21T21:14:52.521Z,11.50
2018-12-21T21:20:05.594Z,11.50
2018-12-21T21:25:10.350Z,11.40
2018-12-21T21:30:18.024Z,11.50
2018-12-21T21:35:24.135Z,11.40
2018-12-21T21:40:32.010Z,11.40
2018-12-21T21:45:38.845Z,11.40
2018-12-21T21:50:48.567Z,11.40
2018-12-21T21:55:55.430Z,11.50
2018-12-21T22:01:04.778Z,11.60
2018-12-21T22:06:10.388Z,11.70
2018-12-21T22:11:22.307Z,11.80
2018-12-21T22:26:38.283Z,11.70
2018-12-21T22:31:47.816Z,11.60
2018-12-21T22:36:56.212Z,11.50
2018-12-21T22:42:08.307Z,11.40
2018-12-21T22:47:15.856Z,11.40
2018-12-21T22:52:25.456Z,11.20
2018-12-21T22:57:31.854Z,11.20
2018-12-21T23:02:41.939Z,11.20
2018-12-21T23:07:49.990Z,11.10
2018-12-21T23:12:59.694Z,11.10
2018-12-21T23:18:07.046Z,11.10
2018-12-21T23:23:17.253Z,11.30
2018-12-21T23:28:26.490Z,11.40
2018-12-21T23:33:34.739Z,11.50
2018-12-21T23:38:45.248Z,11.60
2018-12-21T23:43:55.269Z,11.70
2018-12-21T23:49:02.664Z,11.60
2018-12-21T23:54:13.365Z,11.60
2018-12-21T23:59:23.121Z,11.60
